createdAt,value
2019-01-26T00:00:36.133Z,97123.00
2019-01-26T00:05:32.715Z,97113.61
2019-01-26T00:10:38.870Z,97107.02
2019-01-26T00:15:37.579Z,97101.02
2019-01-26T00:20:36.500Z,97099.75
2019-01-26T00:25:32.437Z,97101.37
2019-01-26T00:30:36.093Z,97101.77
2019-01-26T00:35:35.523Z,97099.91
2019-01-26T00:40:43.807Z,97117.03
2019-01-26T00:45:43.212Z,97124.34
2019-01-26T00:50:45.051Z,97133.69
2019-01-26T00:55:42.407Z,97124.69
2019-01-26T01:00:41.442Z,97123.62
2019-01-26T01:05:42.383Z,97105.55
2019-01-26T01:10:41.321Z,97095.47
2019-01-26T01:15:37.938Z,97093.72
2019-01-26T01:20:36.611Z,97093.72
2019-01-26T01:25:40.451Z,97085.72
2019-01-26T01:30:36.393Z,97090.44
2019-01-26T01:35:41.220Z,97087.20
2019-01-26T01:40:40.261Z,97084.95
2019-01-26T01:45:37.345Z,97072.66
2019-01-26T01:50:34.406Z,97080.06
2019-01-26T01:55:32.100Z,97080.53
2019-01-26T02:00:28.487Z,97074.94
2019-01-26T02:05:28.872Z,97068.50
2019-01-26T02:10:26.223Z,97073.00
2019-01-26T02:15:22.433Z,97066.55
2019-01-26T02:20:23.544Z,97063.65
2019-01-26T02:25:23.726Z,97063.14
2019-01-26T02:30:26.367Z,97071.19
2019-01-26T02:35:22.713Z,97070.55
2019-01-26T02:40:19.054Z,97075.71
2019-01-26T02:45:17.060Z,97080.27
2019-01-26T02:50:16.004Z,97088.84
2019-01-26T02:55:12.475Z,97076.92
2019-01-26T03:00:18.958Z,97083.81
2019-01-26T03:05:20.987Z,97073.77
2019-01-26T03:10:21.060Z,97070.73
2019-01-26T03:15:19.926Z,97072.14
2019-01-26T03:20:17.873Z,97063.27
2019-01-26T03:25:16.599Z,97053.68
2019-01-26T03:30:23.768Z,97041.61
2019-01-26T03:35:19.589Z,97038.03
2019-01-26T03:40:17.823Z,97043.09
2019-01-26T03:45:14.807Z,97029.45
2019-01-26T03:50:21.174Z,97024.95
2019-01-26T03:55:19.089Z,97045.48
2019-01-26T04:00:26.117Z,97039.13
2019-01-26T04:05:22.100Z,97036.16
2019-01-26T04:10:18.788Z,97035.37
2019-01-26T04:15:15.531Z,97040.72
2019-01-26T04:20:15.123Z,97040.60
2019-01-26T04:25:10.939Z,97041.11
2019-01-26T04:30:11.208Z,97032.17
2019-01-26T04:35:07.798Z,97030.88
2019-01-26T04:40:03.769Z,97028.33
2019-01-26T04:44:59.601Z,97024.38
2019-01-26T04:49:55.844Z,97021.41
2019-01-26T04:54:51.937Z,97023.60
2019-01-26T04:59:47.857Z,97030.48
2019-01-26T05:04:43.889Z,97026.65
2019-01-26T05:09:39.941Z,97013.59
2019-01-26T05:14:37.375Z,97001.84
2019-01-26T05:19:33.225Z,97004.74
2019-01-26T05:24:30.861Z,97005.47
2019-01-26T05:29:26.779Z,96995.55
2019-01-26T05:34:22.780Z,97008.11
2019-01-26T05:39:20.048Z,97015.84
2019-01-26T05:44:15.960Z,97009.41
2019-01-26T05:49:11.826Z,97011.39
2019-01-26T05:54:07.774Z,97012.80
2019-01-26T05:59:03.725Z,97012.72
2019-01-26T06:04:00.696Z,97020.64
2019-01-26T06:08:56.657Z,97021.92
2019-01-26T06:13:54.138Z,97013.58
2019-01-26T06:18:49.955Z,97004.81
2019-01-26T06:23:48.042Z,96988.97
2019-01-26T06:28:44.911Z,96979.25
2019-01-26T06:33:42.057Z,96986.66
2019-01-26T06:38:42.672Z,96985.19
2019-01-26T06:43:45.166Z,96988.64
2019-01-26T06:48:46.437Z,96992.84
2019-01-26T06:53:42.584Z,96987.80
2019-01-26T06:58:38.583Z,96981.55
2019-01-26T07:03:34.413Z,96994.48
2019-01-26T07:08:30.270Z,96996.02
2019-01-26T07:13:26.369Z,97000.98
2019-01-26T07:18:22.435Z,97009.02
2019-01-26T07:23:18.266Z,97003.66
2019-01-26T07:28:14.190Z,97007.44
2019-01-26T07:33:10.044Z,97019.81
2019-01-26T07:38:13.320Z,97015.15
2019-01-26T07:43:04.043Z,97010.80
2019-01-26T07:48:00.128Z,97003.41
2019-01-26T07:52:56.239Z,97011.55
2019-01-26T07:57:52.227Z,97007.83
2019-01-26T08:02:52.259Z,97006.53
2019-01-26T08:07:49.362Z,97007.25
2019-01-26T08:13:08.127Z,97002.00
2019-01-26T08:18:09.227Z,97001.03
2019-01-26T08:23:12.586Z,96998.87
2019-01-26T08:28:08.731Z,97004.08
2019-01-26T08:33:05.288Z,97005.66
2019-01-26T08:38:01.262Z,97007.76
2019-01-26T08:43:00.074Z,97009.82
2019-01-26T08:47:56.157Z,97003.92
2019-01-26T08:52:52.357Z,97000.41
2019-01-26T08:57:51.660Z,96986.59
2019-01-26T09:03:06.435Z,96984.38
2019-01-26T09:08:04.241Z,96979.65
2019-01-26T09:13:02.142Z,96982.27
2019-01-26T09:17:58.343Z,96979.53
2019-01-26T09:22:55.649Z,96976.62
2019-01-26T09:27:52.041Z,96975.77
2019-01-26T09:32:49.412Z,96978.75
2019-01-26T09:38:32.903Z,96974.74
2019-01-26T09:43:26.104Z,96968.41
2019-01-26T09:48:32.053Z,96969.78
2019-01-26T09:53:47.395Z,96966.55
2019-01-26T09:58:48.628Z,96969.26
2019-01-26T10:03:49.354Z,96968.55
2019-01-26T10:08:55.029Z,96963.66
2019-01-26T10:13:51.080Z,96962.90
2019-01-26T10:18:56.669Z,96962.98
2019-01-26T10:24:00.969Z,96959.68
2019-01-26T10:29:00.277Z,96961.13
2019-01-26T10:34:06.029Z,96961.44
2019-01-26T10:39:32.630Z,96953.05
2019-01-26T10:45:14.210Z,96944.61
2019-01-26T10:51:12.241Z,96929.03
2019-01-26T10:56:17.074Z,96919.11
2019-01-26T11:02:38.695Z,96900.48
2019-01-26T11:08:23.267Z,96888.55
2019-01-26T11:14:01.220Z,96876.77
2019-01-26T12:02:34.150Z,96814.90
2019-01-26T12:07:47.759Z,96801.94
2019-01-26T12:13:07.059Z,96798.22
2019-01-26T12:18:04.072Z,96797.97
2019-01-26T12:29:46.303Z,96769.53
2019-01-26T12:35:35.803Z,96758.95
2019-01-26T12:41:57.674Z,96752.66
2019-01-26T12:47:28.225Z,96737.61
2019-01-26T12:53:29.381Z,96739.77
2019-01-26T12:58:54.584Z,96729.63
2019-01-26T13:04:01.221Z,96719.27
2019-01-26T13:16:17.755Z,96687.55
2019-01-26T13:58:06.908Z,96680.90
2019-01-26T14:02:10.150Z,96666.92
2019-01-26T14:10:14.506Z,96657.41
2019-01-26T16:32:17.724Z,96542.34
2019-01-26T16:37:48.124Z,96532.02
2019-01-26T16:43:23.581Z,96527.68
2019-01-26T16:50:27.497Z,96516.72
2019-01-26T19:22:19.609Z,96343.57
2019-01-26T19:27:15.493Z,96340.79
2019-01-26T19:32:11.332Z,96329.27
2019-01-26T19:37:09.405Z,96320.89
2019-01-26T19:42:05.235Z,96320.75
2019-01-26T19:47:01.341Z,96317.20
2019-01-26T19:51:57.062Z,96312.76
2019-01-26T19:56:54.272Z,96293.25
2019-01-26T20:06:57.520Z,96272.63
2019-01-26T20:11:53.370Z,96260.17
2019-01-26T20:16:50.940Z,96253.22
2019-01-26T20:21:47.869Z,96235.41
2019-01-26T20:26:43.635Z,96240.34
2019-01-26T20:31:39.420Z,96233.48
2019-01-26T20:36:35.239Z,96222.08
2019-01-26T20:41:31.815Z,96218.16
2019-01-26T20:46:28.736Z,96204.89
2019-01-26T20:51:28.261Z,96190.25
2019-01-26T20:56:25.712Z,96185.90
2019-01-26T21:01:21.985Z,96179.00
2019-01-26T21:06:23.326Z,96169.28
2019-01-26T21:11:22.435Z,96168.79
2019-01-26T21:16:20.370Z,96162.27
2019-01-26T21:21:16.262Z,96154.56
2019-01-26T21:26:12.149Z,96148.70
2019-01-26T21:31:08.037Z,96147.17
2019-01-26T21:36:07.111Z,96142.39
2019-01-26T21:41:03.062Z,96130.36
2019-01-26T21:45:58.906Z,96125.95
2019-01-26T21:50:54.715Z,96105.90
2019-01-26T21:55:50.727Z,96094.36
2019-01-26T22:00:50.659Z,96087.70
2019-01-26T22:05:46.650Z,96075.11
2019-01-26T22:10:42.863Z,96055.13
2019-01-26T22:15:39.372Z,96048.77
2019-01-26T22:20:35.352Z,96044.58
2019-01-26T22:25:31.617Z,96034.06
2019-01-26T22:30:32.090Z,96030.37
2019-01-26T22:35:30.107Z,96022.77
2019-01-26T22:40:29.214Z,96009.97
2019-01-26T22:45:25.502Z,95987.77
2019-01-26T22:50:22.202Z,95979.11
2019-01-26T22:55:19.247Z,95969.08
2019-01-26T23:00:59.561Z,95965.02
2019-01-26T23:06:41.371Z,95959.80
2019-01-26T23:12:34.031Z,95949.26
2019-01-26T23:18:03.143Z,95937.98
2019-01-26T23:23:33.135Z,95914.90
2019-01-26T23:29:24.942Z,95913.21
2019-01-26T23:34:23.486Z,95900.16
2019-01-26T23:39:19.309Z,95889.46
2019-01-26T23:44:19.045Z,95878.09
2019-01-26T23:49:14.866Z,95864.48
2019-01-26T23:54:14.589Z,95863.56
2019-01-26T23:59:10.382Z,95852.31
